createdAt,value
2023-02-28T12:38:34.488Z,1.60
2023-02-28T12:39:44.886Z,1.90
2023-02-28T12:40:34.434Z,2.00
2023-02-28T12:41:34.423Z,2.20
2023-02-28T12:42:34.385Z,1.80
2023-02-28T12:43:34.351Z,2.00
2023-02-28T12:44:34.316Z,2.10
2023-02-28T12:45:34.361Z,1.90
2023-02-28T12:46:34.376Z,2.00
2023-02-28T12:47:34.274Z,2.10
2023-02-28T12:48:34.246Z,1.90
2023-02-28T12:49:34.211Z,2.30
2023-02-28T12:50:34.196Z,2.30
2023-02-28T12:51:34.165Z,2.10
2023-02-28T12:52:34.145Z,2.10
2023-02-28T12:53:34.121Z,2.10
2023-02-28T12:54:34.089Z,2.00
2023-02-28T12:55:34.069Z,2.10
2023-02-28T12:56:34.067Z,2.30
2023-02-28T12:57:34.031Z,2.10
2023-02-28T12:58:34.023Z,2.10
2023-02-28T12:59:33.978Z,2.30
2023-02-28T13:00:33.960Z,2.20
2023-02-28T13:01:34.301Z,2.10
2023-02-28T13:02:34.025Z,2.00
2023-02-28T13:03:33.914Z,2.30
2023-02-28T13:04:33.881Z,1.90
2023-02-28T13:05:33.869Z,2.30
2023-02-28T13:06:33.855Z,2.40
2023-02-28T13:07:33.858Z,2.20
2023-02-28T13:08:33.811Z,2.30
2023-02-28T13:09:33.763Z,2.40
2023-02-28T13:10:33.748Z,2.10
2023-02-28T13:11:33.961Z,2.20
2023-02-28T13:12:33.727Z,2.00
2023-02-28T13:13:33.693Z,2.00
2023-02-28T13:14:33.704Z,2.30
2023-02-28T13:15:33.633Z,1.80
2023-02-28T13:16:35.207Z,2.20
2023-02-28T13:17:33.597Z,2.30
2023-02-28T13:18:33.620Z,2.60
2023-02-28T13:19:33.573Z,2.20
2023-02-28T13:20:33.562Z,2.30
2023-02-28T13:21:33.534Z,2.30
2023-02-28T13:22:33.501Z,2.40
2023-02-28T13:23:33.514Z,2.10
2023-02-28T13:24:33.462Z,2.20
2023-02-28T13:25:33.435Z,2.50
2023-02-28T13:26:33.498Z,2.30
2023-02-28T13:27:33.437Z,2.00
2023-02-28T13:28:33.402Z,2.30
2023-02-28T13:29:33.376Z,2.30
2023-02-28T13:30:33.393Z,2.10
2023-02-28T13:31:33.320Z,2.10
2023-02-28T13:32:33.324Z,2.00
2023-02-28T13:33:33.297Z,2.10
2023-02-28T13:34:33.301Z,2.40
2023-02-28T13:35:33.282Z,2.20
2023-02-28T13:36:33.250Z,2.30
2023-02-28T13:37:33.228Z,2.20
2023-02-28T13:38:33.196Z,2.50
2023-02-28T13:39:35.214Z,2.20
2023-02-28T13:40:33.171Z,2.40
2023-02-28T13:41:33.285Z,2.40
2023-02-28T13:42:33.115Z,2.60
2023-02-28T13:43:36.043Z,2.30
2023-02-28T13:44:33.100Z,2.40
2023-02-28T13:45:33.077Z,2.20
2023-02-28T13:46:33.102Z,2.10
2023-02-28T13:47:33.032Z,2.20
2023-02-28T13:48:33.007Z,2.50
2023-02-28T13:49:33.032Z,2.50
2023-02-28T13:50:32.979Z,2.80
2023-02-28T13:51:33.979Z,2.50
2023-02-28T13:52:32.941Z,2.30
2023-02-28T13:53:32.929Z,2.40
2023-02-28T13:54:32.937Z,2.50
2023-02-28T13:55:32.900Z,2.30
2023-02-28T13:56:32.882Z,2.30
2023-02-28T13:57:32.853Z,2.40
2023-02-28T13:58:32.853Z,2.40
2023-02-28T13:59:32.813Z,2.30
2023-02-28T14:00:41.682Z,2.20
2023-02-28T14:01:33.262Z,2.50
2023-02-28T14:02:32.744Z,2.40
2023-02-28T14:03:32.728Z,2.70
2023-02-28T14:04:33.704Z,2.70
2023-02-28T14:05:32.709Z,2.60
2023-02-28T14:06:32.896Z,2.50
2023-02-28T14:07:36.257Z,3.10
2023-02-28T14:08:32.636Z,2.80
2023-02-28T14:09:32.602Z,2.70
2023-02-28T14:10:32.629Z,2.70
2023-02-28T14:11:32.588Z,2.40
2023-02-28T14:12:32.555Z,2.40
2023-02-28T14:13:32.556Z,2.60
2023-02-28T14:14:32.548Z,2.50
2023-02-28T14:15:32.557Z,2.60
2023-02-28T14:16:32.561Z,2.70
2023-02-28T14:17:32.461Z,2.50
2023-02-28T14:18:32.478Z,2.70
2023-02-28T14:19:32.459Z,2.80
2023-02-28T14:20:32.438Z,2.50
2023-02-28T14:21:32.396Z,2.70
2023-02-28T14:22:32.376Z,2.80
2023-02-28T14:23:32.355Z,3.00
2023-02-28T14:24:32.365Z,3.20
2023-02-28T14:25:32.341Z,2.90
2023-02-28T14:26:32.325Z,2.60
2023-02-28T14:27:32.289Z,2.40
2023-02-28T14:28:32.277Z,3.00
2023-02-28T14:44:59.522Z,2.50
2023-02-28T14:45:59.512Z,2.70
2023-02-28T14:46:59.493Z,3.20
2023-02-28T14:47:59.452Z,3.00
2023-02-28T14:48:59.455Z,3.10
2023-02-28T14:49:59.426Z,2.70
2023-02-28T14:50:59.420Z,3.00
2023-02-28T14:51:59.388Z,3.20
2023-02-28T14:52:59.387Z,3.10
2023-02-28T14:53:59.356Z,3.10
2023-02-28T14:54:59.353Z,3.20
2023-02-28T14:55:59.303Z,3.30
